sensor_id;sensor_type;location;lat;lon;timestamp;temperature;humidity
5419;DHT22;2732;52.092;11.556;2023-08-31T00:03:55;15.30;99.90
5419;DHT22;2732;52.092;11.556;2023-08-31T00:08:56;15.30;99.90
5419;DHT22;2732;52.092;11.556;2023-08-31T00:13:57;15.20;99.90
5419;DHT22;2732;52.092;11.556;2023-08-31T00:18:57;15.20;99.90
5419;DHT22;2732;52.092;11.556;2023-08-31T00:23:59;15.20;99.90
5419;DHT22;2732;52.092;11.556;2023-08-31T00:28:59;15.20;99.90
5419;DHT22;2732;52.092;11.556;2023-08-31T00:34:01;15.10;99.90
5419;DHT22;2732;52.092;11.556;2023-08-31T00:39:04;15.10;99.90
5419;DHT22;2732;52.092;11.556;2023-08-31T00:44:11;15.10;99.90
5419;DHT22;2732;52.092;11.556;2023-08-31T00:49:12;15.10;99.90
5419;DHT22;2732;52.092;11.556;2023-08-31T00:54:19;15.00;99.90
5419;DHT22;2732;52.092;11.556;2023-08-31T00:59:21;15.00;99.90
5419;DHT22;2732;52.092;11.556;2023-08-31T01:04:38;14.90;99.90
5419;DHT22;2732;52.092;11.556;2023-08-31T01:10:08;14.90;99.90
5419;DHT22;2732;52.092;11.556;2023-08-31T01:15:15;14.80;99.90
5419;DHT22;2732;52.092;11.556;2023-08-31T01:20:21;14.80;99.90
5419;DHT22;2732;52.092;11.556;2023-08-31T01:25:28;14.80;99.90
5419;DHT22;2732;52.092;11.556;2023-08-31T01:30:31;14.80;99.90
5419;DHT22;2732;52.092;11.556;2023-08-31T01:35:40;14.70;99.90
5419;DHT22;2732;52.092;11.556;2023-08-31T01:40:54;14.70;99.90
5419;DHT22;2732;52.092;11.556;2023-08-31T01:45:56;14.70;99.90
5419;DHT22;2732;52.092;11.556;2023-08-31T01:50:58;14.70;99.90
5419;DHT22;2732;52.092;11.556;2023-08-31T01:56:00;14.70;99.90
5419;DHT22;2732;52.092;11.556;2023-08-31T02:01:01;14.70;99.90
5419;DHT22;2732;52.092;11.556;2023-08-31T02:06:02;14.70;99.90
5419;DHT22;2732;52.092;11.556;2023-08-31T02:11:04;14.70;99.90
5419;DHT22;2732;52.092;11.556;2023-08-31T02:16:04;14.60;99.90
5419;DHT22;2732;52.092;11.556;2023-08-31T02:21:05;14.60;99.90
5419;DHT22;2732;52.092;11.556;2023-08-31T02:26:07;14.60;99.90
5419;DHT22;2732;52.092;11.556;2023-08-31T02:31:10;14.60;99.90
5419;DHT22;2732;52.092;11.556;2023-08-31T02:36:12;14.60;99.90
5419;DHT22;2732;52.092;11.556;2023-08-31T02:41:12;14.50;99.90
5419;DHT22;2732;52.092;11.556;2023-08-31T02:46:13;14.50;99.90
5419;DHT22;2732;52.092;11.556;2023-08-31T02:51:14;14.50;99.90
5419;DHT22;2732;52.092;11.556;2023-08-31T02:56:15;14.50;99.90
5419;DHT22;2732;52.092;11.556;2023-08-31T03:01:15;14.50;99.90
5419;DHT22;2732;52.092;11.556;2023-08-31T03:06:16;14.50;99.90
5419;DHT22;2732;52.092;11.556;2023-08-31T03:11:17;14.40;99.90
5419;DHT22;2732;52.092;11.556;2023-08-31T03:16:17;14.40;99.90
5419;DHT22;2732;52.092;11.556;2023-08-31T03:21:18;14.40;99.90
5419;DHT22;2732;52.092;11.556;2023-08-31T03:26:20;14.40;99.90
5419;DHT22;2732;52.092;11.556;2023-08-31T03:31:20;14.30;99.90
5419;DHT22;2732;52.092;11.556;2023-08-31T03:36:21;14.30;99.90
5419;DHT22;2732;52.092;11.556;2023-08-31T03:41:22;14.30;99.90
5419;DHT22;2732;52.092;11.556;2023-08-31T03:46:22;14.30;99.90
5419;DHT22;2732;52.092;11.556;2023-08-31T03:51:24;14.20;99.90
5419;DHT22;2732;52.092;11.556;2023-08-31T03:56:25;14.20;99.90
5419;DHT22;2732;52.092;11.556;2023-08-31T04:01:25;14.20;99.90
5419;DHT22;2732;52.092;11.556;2023-08-31T04:06:26;14.10;99.90
5419;DHT22;2732;52.092;11.556;2023-08-31T04:11:29;14.10;99.90
5419;DHT22;2732;52.092;11.556;2023-08-31T04:16:29;14.10;99.90
5419;DHT22;2732;52.092;11.556;2023-08-31T04:21:30;14.00;99.90
5419;DHT22;2732;52.092;11.556;2023-08-31T04:26:30;14.00;99.90
5419;DHT22;2732;52.092;11.556;2023-08-31T04:31:32;13.90;99.90
5419;DHT22;2732;52.092;11.556;2023-08-31T04:36:33;13.90;99.90
5419;DHT22;2732;52.092;11.556;2023-08-31T04:41:34;13.90;99.90
5419;DHT22;2732;52.092;11.556;2023-08-31T04:46:34;13.80;99.90
5419;DHT22;2732;52.092;11.556;2023-08-31T04:51:35;13.80;99.90
5419;DHT22;2732;52.092;11.556;2023-08-31T04:56:39;13.80;99.90
5419;DHT22;2732;52.092;11.556;2023-08-31T05:01:40;13.80;99.90
5419;DHT22;2732;52.092;11.556;2023-08-31T05:06:40;13.80;99.90
5419;DHT22;2732;52.092;11.556;2023-08-31T05:11:41;13.80;99.90
5419;DHT22;2732;52.092;11.556;2023-08-31T05:16:42;13.80;99.90
5419;DHT22;2732;52.092;11.556;2023-08-31T05:21:43;13.80;99.90
5419;DHT22;2732;52.092;11.556;2023-08-31T05:26:44;13.90;99.90
5419;DHT22;2732;52.092;11.556;2023-08-31T05:31:44;13.90;99.90
5419;DHT22;2732;52.092;11.556;2023-08-31T05:36:45;14.00;99.90
5419;DHT22;2732;52.092;11.556;2023-08-31T05:41:45;14.10;99.90
5419;DHT22;2732;52.092;11.556;2023-08-31T05:46:46;14.10;99.90
5419;DHT22;2732;52.092;11.556;2023-08-31T05:51:47;14.10;99.90
5419;DHT22;2732;52.092;11.556;2023-08-31T05:56:47;14.10;99.90
5419;DHT22;2732;52.092;11.556;2023-08-31T06:01:48;14.10;99.90
5419;DHT22;2732;52.092;11.556;2023-08-31T06:06:49;14.10;99.90
5419;DHT22;2732;52.092;11.556;2023-08-31T06:11:54;14.10;99.90
5419;DHT22;2732;52.092;11.556;2023-08-31T06:16:54;14.10;99.90
5419;DHT22;2732;52.092;11.556;2023-08-31T06:21:55;14.10;99.90
5419;DHT22;2732;52.092;11.556;2023-08-31T06:26:55;14.00;99.90
5419;DHT22;2732;52.092;11.556;2023-08-31T06:31:57;14.00;99.90
5419;DHT22;2732;52.092;11.556;2023-08-31T06:36:58;14.10;99.90
5419;DHT22;2732;52.092;11.556;2023-08-31T06:41:59;14.00;99.90
5419;DHT22;2732;52.092;11.556;2023-08-31T06:46:59;14.10;99.90
5419;DHT22;2732;52.092;11.556;2023-08-31T06:52:00;14.10;99.90
5419;DHT22;2732;52.092;11.556;2023-08-31T06:57:03;14.20;99.90
5419;DHT22;2732;52.092;11.556;2023-08-31T07:02:04;14.30;99.90
5419;DHT22;2732;52.092;11.556;2023-08-31T07:07:06;14.60;99.90
5419;DHT22;2732;52.092;11.556;2023-08-31T07:12:07;14.80;99.90
5419;DHT22;2732;52.092;11.556;2023-08-31T07:17:08;14.90;99.90
5419;DHT22;2732;52.092;11.556;2023-08-31T07:22:08;15.00;99.90
5419;DHT22;2732;52.092;11.556;2023-08-31T07:27:10;15.10;99.90
5419;DHT22;2732;52.092;11.556;2023-08-31T07:32:11;15.40;99.90
5419;DHT22;2732;52.092;11.556;2023-08-31T07:37:11;15.60;99.90
5419;DHT22;2732;52.092;11.556;2023-08-31T07:42:12;15.70;99.90
5419;DHT22;2732;52.092;11.556;2023-08-31T07:47:13;15.90;99.90
5419;DHT22;2732;52.092;11.556;2023-08-31T07:52:13;16.00;99.90
5419;DHT22;2732;52.092;11.556;2023-08-31T07:57:14;16.10;99.90
5419;DHT22;2732;52.092;11.556;2023-08-31T08:02:14;16.20;99.90
5419;DHT22;2732;52.092;11.556;2023-08-31T08:07:16;16.20;99.90
5419;DHT22;2732;52.092;11.556;2023-08-31T08:12:17;16.60;99.90
5419;DHT22;2732;52.092;11.556;2023-08-31T08:17:17;17.10;99.90
5419;DHT22;2732;52.092;11.556;2023-08-31T08:22:18;17.60;99.90
5419;DHT22;2732;52.092;11.556;2023-08-31T08:27:19;18.00;99.90
5419;DHT22;2732;52.092;11.556;2023-08-31T08:32:20;18.40;99.90
5419;DHT22;2732;52.092;11.556;2023-08-31T08:37:21;18.90;99.90
5419;DHT22;2732;52.092;11.556;2023-08-31T08:42:24;19.10;99.90
5419;DHT22;2732;52.092;11.556;2023-08-31T08:47:26;19.50;99.90
5419;DHT22;2732;52.092;11.556;2023-08-31T08:52:28;19.80;99.90
5419;DHT22;2732;52.092;11.556;2023-08-31T08:57:30;20.10;99.90
5419;DHT22;2732;52.092;11.556;2023-08-31T09:02:31;20.30;99.90
5419;DHT22;2732;52.092;11.556;2023-08-31T09:07:34;20.60;99.90
5419;DHT22;2732;52.092;11.556;2023-08-31T09:12:38;21.00;99.90
5419;DHT22;2732;52.092;11.556;2023-08-31T09:17:43;21.10;99.90
5419;DHT22;2732;52.092;11.556;2023-08-31T09:22:47;21.00;99.60
5419;DHT22;2732;52.092;11.556;2023-08-31T09:27:51;20.70;99.90
5419;DHT22;2732;52.092;11.556;2023-08-31T09:32:52;21.20;99.80
5419;DHT22;2732;52.092;11.556;2023-08-31T09:37:55;21.30;99.40
5419;DHT22;2732;52.092;11.556;2023-08-31T09:42:57;21.40;99.20
5419;DHT22;2732;52.092;11.556;2023-08-31T09:48:02;21.60;98.60
5419;DHT22;2732;52.092;11.556;2023-08-31T09:53:04;21.80;97.60
5419;DHT22;2732;52.092;11.556;2023-08-31T09:58:07;22.40;97.20
5419;DHT22;2732;52.092;11.556;2023-08-31T10:03:08;22.90;96.10
5419;DHT22;2732;52.092;11.556;2023-08-31T10:08:11;23.50;94.90
5419;DHT22;2732;52.092;11.556;2023-08-31T10:13:11;23.50;94.60
5419;DHT22;2732;52.092;11.556;2023-08-31T10:18:12;23.40;94.30
5419;DHT22;2732;52.092;11.556;2023-08-31T10:23:14;23.70;93.90
5419;DHT22;2732;52.092;11.556;2023-08-31T10:28:27;23.70;93.00
5419;DHT22;2732;52.092;11.556;2023-08-31T10:33:31;23.50;93.40
5419;DHT22;2732;52.092;11.556;2023-08-31T10:38:35;23.80;93.30
5419;DHT22;2732;52.092;11.556;2023-08-31T10:48:54;23.80;92.60
5419;DHT22;2732;52.092;11.556;2023-08-31T10:54:09;23.60;92.40
5419;DHT22;2732;52.092;11.556;2023-08-31T10:59:46;23.80;92.10
5419;DHT22;2732;52.092;11.556;2023-08-31T11:10:13;24.60;91.50
5419;DHT22;2732;52.092;11.556;2023-08-31T11:15:23;24.80;91.20
5419;DHT22;2732;52.092;11.556;2023-08-31T11:20:30;25.00;90.80
5419;DHT22;2732;52.092;11.556;2023-08-31T11:25:31;24.50;90.50
5419;DHT22;2732;52.092;11.556;2023-08-31T11:30:33;23.80;90.40
5419;DHT22;2732;52.092;11.556;2023-08-31T11:35:40;23.10;91.40
5419;DHT22;2732;52.092;11.556;2023-08-31T11:40:42;22.50;92.10
5419;DHT22;2732;52.092;11.556;2023-08-31T11:45:43;21.90;91.80
5419;DHT22;2732;52.092;11.556;2023-08-31T11:50:44;21.50;91.80
5419;DHT22;2732;52.092;11.556;2023-08-31T11:55:52;21.10;92.70
5419;DHT22;2732;52.092;11.556;2023-08-31T12:00:57;20.70;92.90
5419;DHT22;2732;52.092;11.556;2023-08-31T12:05:58;20.20;94.90
5419;DHT22;2732;52.092;11.556;2023-08-31T12:11:00;19.70;96.80
5419;DHT22;2732;52.092;11.556;2023-08-31T12:16:01;19.40;97.70
5419;DHT22;2732;52.092;11.556;2023-08-31T12:21:02;19.60;98.50
5419;DHT22;2732;52.092;11.556;2023-08-31T12:26:05;20.40;98.20
5419;DHT22;2732;52.092;11.556;2023-08-31T12:31:08;21.40;97.70
5419;DHT22;2732;52.092;11.556;2023-08-31T12:36:08;21.50;97.50
5419;DHT22;2732;52.092;11.556;2023-08-31T12:41:09;21.90;98.00
5419;DHT22;2732;52.092;11.556;2023-08-31T12:46:10;21.60;97.60
5419;DHT22;2732;52.092;11.556;2023-08-31T12:51:13;21.10;98.10
5419;DHT22;2732;52.092;11.556;2023-08-31T12:56:14;20.50;98.60
5419;DHT22;2732;52.092;11.556;2023-08-31T13:01:22;20.00;99.20
5419;DHT22;2732;52.092;11.556;2023-08-31T13:06:26;19.60;99.60
5419;DHT22;2732;52.092;11.556;2023-08-31T13:11:27;19.20;99.80
5419;DHT22;2732;52.092;11.556;2023-08-31T13:16:27;19.10;99.90
5419;DHT22;2732;52.092;11.556;2023-08-31T13:21:28;18.90;99.90
5419;DHT22;2732;52.092;11.556;2023-08-31T13:26:29;18.90;99.90
5419;DHT22;2732;52.092;11.556;2023-08-31T13:31:29;18.90;99.90
5419;DHT22;2732;52.092;11.556;2023-08-31T13:36:30;19.30;99.90
5419;DHT22;2732;52.092;11.556;2023-08-31T13:41:31;19.50;99.90
5419;DHT22;2732;52.092;11.556;2023-08-31T13:46:31;19.40;99.90
5419;DHT22;2732;52.092;11.556;2023-08-31T13:51:32;19.90;99.90
5419;DHT22;2732;52.092;11.556;2023-08-31T13:56:33;20.40;99.90
5419;DHT22;2732;52.092;11.556;2023-08-31T14:01:34;21.00;99.80
5419;DHT22;2732;52.092;11.556;2023-08-31T14:06:35;21.40;99.70
5419;DHT22;2732;52.092;11.556;2023-08-31T14:11:36;21.80;98.70
5419;DHT22;2732;52.092;11.556;2023-08-31T14:16:37;22.10;98.80
5419;DHT22;2732;52.092;11.556;2023-08-31T14:21:39;22.30;98.40
5419;DHT22;2732;52.092;11.556;2023-08-31T14:26:40;22.10;97.80
5419;DHT22;2732;52.092;11.556;2023-08-31T14:31:41;21.80;97.70
5419;DHT22;2732;52.092;11.556;2023-08-31T14:36:41;22.10;97.80
5419;DHT22;2732;52.092;11.556;2023-08-31T14:41:42;22.30;96.80
5419;DHT22;2732;52.092;11.556;2023-08-31T14:46:43;22.40;97.10
5419;DHT22;2732;52.092;11.556;2023-08-31T14:51:43;22.50;96.40
5419;DHT22;2732;52.092;11.556;2023-08-31T14:56:44;22.50;96.40
5419;DHT22;2732;52.092;11.556;2023-08-31T15:01:45;22.60;96.30
5419;DHT22;2732;52.092;11.556;2023-08-31T15:06:47;22.60;96.20
5419;DHT22;2732;52.092;11.556;2023-08-31T15:11:48;22.70;96.10
5419;DHT22;2732;52.092;11.556;2023-08-31T15:16:49;22.70;95.60
5419;DHT22;2732;52.092;11.556;2023-08-31T15:21:49;22.80;95.60
5419;DHT22;2732;52.092;11.556;2023-08-31T15:26:50;22.80;95.10
5419;DHT22;2732;52.092;11.556;2023-08-31T15:31:51;22.70;94.80
5419;DHT22;2732;52.092;11.556;2023-08-31T15:36:52;22.30;94.90
5419;DHT22;2732;52.092;11.556;2023-08-31T15:41:53;21.80;95.20
5419;DHT22;2732;52.092;11.556;2023-08-31T15:46:53;21.40;95.40
5419;DHT22;2732;52.092;11.556;2023-08-31T15:51:54;21.30;95.60
5419;DHT22;2732;52.092;11.556;2023-08-31T15:56:55;21.20;96.00
5419;DHT22;2732;52.092;11.556;2023-08-31T16:01:56;21.40;96.10
5419;DHT22;2732;52.092;11.556;2023-08-31T16:06:57;21.70;95.90
5419;DHT22;2732;52.092;11.556;2023-08-31T16:11:58;21.80;95.90
5419;DHT22;2732;52.092;11.556;2023-08-31T16:16:59;21.70;95.80
5419;DHT22;2732;52.092;11.556;2023-08-31T16:22:00;21.50;95.90
5419;DHT22;2732;52.092;11.556;2023-08-31T16:27:01;21.10;96.10
5419;DHT22;2732;52.092;11.556;2023-08-31T16:32:03;20.90;96.50
5419;DHT22;2732;52.092;11.556;2023-08-31T16:37:04;20.70;96.70
5419;DHT22;2732;52.092;11.556;2023-08-31T16:42:04;20.50;96.70
5419;DHT22;2732;52.092;11.556;2023-08-31T16:47:05;20.30;96.90
5419;DHT22;2732;52.092;11.556;2023-08-31T16:52:06;20.10;97.10
5419;DHT22;2732;52.092;11.556;2023-08-31T16:57:07;19.80;97.60
5419;DHT22;2732;52.092;11.556;2023-08-31T17:02:08;19.50;97.90
5419;DHT22;2732;52.092;11.556;2023-08-31T17:07:09;19.40;98.10
5419;DHT22;2732;52.092;11.556;2023-08-31T17:12:10;19.10;98.30
5419;DHT22;2732;52.092;11.556;2023-08-31T17:17:11;19.00;98.40
5419;DHT22;2732;52.092;11.556;2023-08-31T17:22:11;18.70;98.60
5419;DHT22;2732;52.092;11.556;2023-08-31T17:27:12;18.50;98.50
5419;DHT22;2732;52.092;11.556;2023-08-31T17:32:13;18.30;98.70
5419;DHT22;2732;52.092;11.556;2023-08-31T17:37:13;18.10;99.00
5419;DHT22;2732;52.092;11.556;2023-08-31T17:42:14;18.00;99.20
5419;DHT22;2732;52.092;11.556;2023-08-31T17:47:15;17.80;99.30
5419;DHT22;2732;52.092;11.556;2023-08-31T17:52:15;17.70;99.50
5419;DHT22;2732;52.092;11.556;2023-08-31T17:57:16;17.50;99.70
5419;DHT22;2732;52.092;11.556;2023-08-31T18:02:17;17.40;99.90
5419;DHT22;2732;52.092;11.556;2023-08-31T18:07:17;17.30;99.90
5419;DHT22;2732;52.092;11.556;2023-08-31T18:12:18;17.10;99.90
5419;DHT22;2732;52.092;11.556;2023-08-31T18:17:18;17.00;99.90
5419;DHT22;2732;52.092;11.556;2023-08-31T18:22:19;16.80;99.90
5419;DHT22;2732;52.092;11.556;2023-08-31T18:27:20;16.60;99.90
5419;DHT22;2732;52.092;11.556;2023-08-31T18:32:20;16.40;99.90
5419;DHT22;2732;52.092;11.556;2023-08-31T18:37:21;16.30;99.90
5419;DHT22;2732;52.092;11.556;2023-08-31T18:42:23;16.10;99.90
5419;DHT22;2732;52.092;11.556;2023-08-31T18:47:25;16.00;99.90
5419;DHT22;2732;52.092;11.556;2023-08-31T18:52:25;15.90;99.90
5419;DHT22;2732;52.092;11.556;2023-08-31T18:57:26;15.80;99.90
5419;DHT22;2732;52.092;11.556;2023-08-31T19:02:27;15.70;99.90
5419;DHT22;2732;52.092;11.556;2023-08-31T19:07:27;15.50;99.90
5419;DHT22;2732;52.092;11.556;2023-08-31T19:12:28;15.40;99.90
5419;DHT22;2732;52.092;11.556;2023-08-31T19:17:29;15.30;99.90
5419;DHT22;2732;52.092;11.556;2023-08-31T19:22:29;15.20;99.90
5419;DHT22;2732;52.092;11.556;2023-08-31T19:27:30;15.10;99.90
5419;DHT22;2732;52.092;11.556;2023-08-31T19:32:31;15.00;99.90
5419;DHT22;2732;52.092;11.556;2023-08-31T19:37:32;14.90;99.90
5419;DHT22;2732;52.092;11.556;2023-08-31T19:42:34;14.80;99.90
5419;DHT22;2732;52.092;11.556;2023-08-31T19:47:34;14.70;99.90
5419;DHT22;2732;52.092;11.556;2023-08-31T19:52:36;14.70;99.90
5419;DHT22;2732;52.092;11.556;2023-08-31T19:57:37;14.60;99.90
5419;DHT22;2732;52.092;11.556;2023-08-31T20:02:38;14.50;99.90
5419;DHT22;2732;52.092;11.556;2023-08-31T20:07:39;14.40;99.90
5419;DHT22;2732;52.092;11.556;2023-08-31T20:12:40;14.30;99.90
5419;DHT22;2732;52.092;11.556;2023-08-31T20:17:41;14.30;99.90
5419;DHT22;2732;52.092;11.556;2023-08-31T20:22:45;14.20;99.90
5419;DHT22;2732;52.092;11.556;2023-08-31T20:27:46;14.10;99.90
5419;DHT22;2732;52.092;11.556;2023-08-31T20:32:47;14.00;99.90
5419;DHT22;2732;52.092;11.556;2023-08-31T20:37:47;14.00;99.90
5419;DHT22;2732;52.092;11.556;2023-08-31T20:42:50;13.90;99.90
5419;DHT22;2732;52.092;11.556;2023-08-31T20:47:54;13.80;99.90
5419;DHT22;2732;52.092;11.556;2023-08-31T20:52:55;13.80;99.90
5419;DHT22;2732;52.092;11.556;2023-08-31T20:57:55;13.70;99.90
5419;DHT22;2732;52.092;11.556;2023-08-31T21:02:57;13.60;99.90
5419;DHT22;2732;52.092;11.556;2023-08-31T21:07:58;13.60;99.90
5419;DHT22;2732;52.092;11.556;2023-08-31T21:12:58;13.50;99.90
5419;DHT22;2732;52.092;11.556;2023-08-31T21:17:59;13.40;99.90
5419;DHT22;2732;52.092;11.556;2023-08-31T21:23:00;13.40;99.90
5419;DHT22;2732;52.092;11.556;2023-08-31T21:28:02;13.30;99.90
5419;DHT22;2732;52.092;11.556;2023-08-31T21:33:03;13.30;99.90
5419;DHT22;2732;52.092;11.556;2023-08-31T21:38:04;13.20;99.90
5419;DHT22;2732;52.092;11.556;2023-08-31T21:43:06;13.20;99.90
5419;DHT22;2732;52.092;11.556;2023-08-31T21:48:08;13.10;99.90
5419;DHT22;2732;52.092;11.556;2023-08-31T21:53:09;13.10;99.90
5419;DHT22;2732;52.092;11.556;2023-08-31T21:58:09;13.00;99.90
5419;DHT22;2732;52.092;11.556;2023-08-31T22:03:10;13.00;99.90
5419;DHT22;2732;52.092;11.556;2023-08-31T22:08:10;12.90;99.90
5419;DHT22;2732;52.092;11.556;2023-08-31T22:13:11;12.90;99.90
5419;DHT22;2732;52.092;11.556;2023-08-31T22:18:12;12.90;99.90
5419;DHT22;2732;52.092;11.556;2023-08-31T22:23:14;12.80;99.90
5419;DHT22;2732;52.092;11.556;2023-08-31T22:28:15;12.80;99.90
5419;DHT22;2732;52.092;11.556;2023-08-31T22:33:16;12.70;99.90
5419;DHT22;2732;52.092;11.556;2023-08-31T22:38:17;12.70;99.90
5419;DHT22;2732;52.092;11.556;2023-08-31T22:43:17;12.70;99.90
5419;DHT22;2732;52.092;11.556;2023-08-31T22:48:18;12.70;99.90
5419;DHT22;2732;52.092;11.556;2023-08-31T22:53:19;12.60;99.90
5419;DHT22;2732;52.092;11.556;2023-08-31T22:58:19;12.50;99.90
5419;DHT22;2732;52.092;11.556;2023-08-31T23:03:20;12.60;99.90
5419;DHT22;2732;52.092;11.556;2023-08-31T23:08:21;12.50;99.90
5419;DHT22;2732;52.092;11.556;2023-08-31T23:13:21;12.50;99.90
5419;DHT22;2732;52.092;11.556;2023-08-31T23:18:22;12.40;99.90
5419;DHT22;2732;52.092;11.556;2023-08-31T23:23:23;12.40;99.90
5419;DHT22;2732;52.092;11.556;2023-08-31T23:28:23;12.40;99.90
5419;DHT22;2732;52.092;11.556;2023-08-31T23:33:24;12.30;99.90
5419;DHT22;2732;52.092;11.556;2023-08-31T23:38:25;12.30;99.90
5419;DHT22;2732;52.092;11.556;2023-08-31T23:43:26;12.30;99.90
5419;DHT22;2732;52.092;11.556;2023-08-31T23:48:27;12.30;99.90
5419;DHT22;2732;52.092;11.556;2023-08-31T23:53:27;12.30;99.90
5419;DHT22;2732;52.092;11.556;2023-08-31T23:58:28;12.20;99.90
